createdAt,value
2019-01-19T00:02:22.448Z,41.53
2019-01-19T00:07:17.977Z,38.03
2019-01-19T00:12:18.565Z,41.10
2019-01-19T00:17:36.102Z,56.47
2019-01-19T00:22:46.165Z,51.70
2019-01-19T00:27:53.095Z,58.37
2019-01-19T00:33:03.327Z,53.90
2019-01-19T00:37:58.304Z,40.60
2019-01-19T00:42:53.712Z,41.97
2019-01-19T00:48:00.818Z,42.37
2019-01-19T00:52:58.720Z,43.27
2019-01-19T00:58:08.520Z,30.23
2019-01-19T01:03:24.752Z,34.07
2019-01-19T01:08:36.463Z,35.33
2019-01-19T01:13:31.625Z,39.70
2019-01-19T01:18:41.588Z,31.17
2019-01-19T01:23:57.462Z,35.37
2019-01-19T01:28:52.891Z,44.13
2019-01-19T01:33:48.284Z,40.00
2019-01-19T01:38:49.192Z,38.20
2019-01-19T01:43:50.234Z,36.23
2019-01-19T01:48:51.301Z,64.07
2019-01-19T01:53:46.453Z,40.27
2019-01-19T01:58:44.564Z,43.03
2019-01-19T02:03:40.064Z,41.23
2019-01-19T02:08:50.072Z,117.07
2019-01-19T02:14:02.992Z,84.73
2019-01-19T02:19:14.557Z,81.77
2019-01-19T02:24:18.951Z,58.93
2019-01-19T02:29:19.765Z,57.30
2019-01-19T02:34:32.743Z,48.63
2019-01-19T02:39:33.626Z,40.10
2019-01-19T02:44:41.140Z,29.77
2019-01-19T02:50:02.089Z,31.17
2019-01-19T02:55:09.235Z,32.70
2019-01-19T03:00:14.358Z,31.73
2019-01-19T03:05:10.885Z,34.50
2019-01-19T03:10:18.001Z,28.17
2019-01-19T03:15:24.547Z,29.87
2019-01-19T03:20:19.757Z,29.60
2019-01-19T03:25:29.522Z,31.83
2019-01-19T03:30:42.547Z,29.40
2019-01-19T03:35:40.624Z,26.97
2019-01-19T03:40:44.628Z,29.93
2019-01-19T03:46:00.780Z,30.37
2019-01-19T03:50:59.221Z,26.10
2019-01-19T03:56:06.055Z,26.80
2019-01-19T04:01:04.062Z,29.63
2019-01-19T04:06:20.072Z,28.63
2019-01-19T04:11:27.570Z,31.37
2019-01-19T04:16:28.354Z,26.37
2019-01-19T04:21:44.364Z,26.73
2019-01-19T04:26:36.485Z,32.67
2019-01-19T04:31:28.950Z,29.03
2019-01-19T04:36:21.964Z,27.33
2019-01-19T04:41:14.090Z,24.07
2019-01-19T04:46:06.766Z,26.13
2019-01-19T04:50:59.023Z,25.83
2019-01-19T04:55:51.389Z,25.47
2019-01-19T05:00:43.703Z,29.03
2019-01-19T05:05:36.059Z,28.03
2019-01-19T05:10:28.057Z,27.23
2019-01-19T05:15:20.549Z,29.70
2019-01-19T05:20:14.116Z,29.27
2019-01-19T05:25:08.352Z,28.13
2019-01-19T05:30:00.663Z,36.27
2019-01-19T05:34:53.293Z,33.13
2019-01-19T05:39:45.763Z,30.20
2019-01-19T05:44:38.313Z,31.40
2019-01-19T05:49:30.594Z,35.43
2019-01-19T05:54:22.948Z,33.33
2019-01-19T05:59:15.329Z,26.93
2019-01-19T06:04:07.782Z,28.67
2019-01-19T06:08:59.945Z,28.03
2019-01-19T06:13:52.421Z,29.00
2019-01-19T06:18:45.301Z,27.80
2019-01-19T06:23:37.560Z,27.30
2019-01-19T06:28:29.928Z,36.43
2019-01-19T06:33:22.094Z,29.13
2019-01-19T06:38:14.591Z,26.37
2019-01-19T06:43:07.012Z,27.70
2019-01-19T06:47:59.144Z,29.80
2019-01-19T06:52:51.366Z,31.93
2019-01-19T06:57:43.837Z,31.90
2019-01-19T07:02:35.820Z,30.43
2019-01-19T07:07:28.010Z,32.17
2019-01-19T07:12:20.449Z,34.27
2019-01-19T07:17:12.800Z,38.90
2019-01-19T07:22:05.111Z,42.40
2019-01-19T07:26:57.605Z,42.23
2019-01-19T07:31:49.750Z,31.77
2019-01-19T07:36:42.165Z,28.83
2019-01-19T07:41:34.469Z,33.93
2019-01-19T07:46:27.293Z,27.67
2019-01-19T07:51:19.329Z,39.67
2019-01-19T07:56:11.822Z,32.53
2019-01-19T08:01:04.436Z,37.47
2019-01-19T08:05:56.561Z,33.43
2019-01-19T08:10:48.971Z,32.93
2019-01-19T08:15:41.486Z,51.23
2019-01-19T08:20:33.689Z,52.20
2019-01-19T08:25:25.626Z,37.70
2019-01-19T08:30:26.193Z,72.33
2019-01-19T08:35:18.501Z,35.87
2019-01-19T08:40:13.934Z,46.03
2019-01-19T08:45:08.569Z,34.43
2019-01-19T08:50:00.733Z,38.20
2019-01-19T08:54:53.116Z,69.80
2019-01-19T08:59:45.349Z,123.97
2019-01-19T09:04:37.886Z,61.07
2019-01-19T09:09:30.009Z,36.47
2019-01-19T09:14:22.513Z,41.73
2019-01-19T09:19:14.997Z,36.33
2019-01-19T09:24:08.101Z,27.63
2019-01-19T09:29:00.030Z,25.10
2019-01-19T09:33:52.344Z,19.13
2019-01-19T09:38:44.954Z,18.83
2019-01-19T09:43:37.579Z,19.73
2019-01-19T09:48:30.037Z,17.83
2019-01-19T09:53:22.194Z,17.77
2019-01-19T09:58:14.636Z,19.67
2019-01-19T10:03:07.084Z,18.90
2019-01-19T10:07:59.570Z,23.70
2019-01-19T10:12:52.167Z,18.93
2019-01-19T10:17:44.410Z,22.97
2019-01-19T10:22:36.796Z,20.93
2019-01-19T10:27:28.977Z,19.20
2019-01-19T10:32:21.514Z,19.30
2019-01-19T10:37:13.929Z,20.63
2019-01-19T10:42:06.145Z,21.23
2019-01-19T10:46:59.682Z,19.53
2019-01-19T10:51:51.857Z,20.13
2019-01-19T10:56:43.901Z,20.47
2019-01-19T11:01:35.994Z,16.60
2019-01-19T11:06:28.045Z,22.30
2019-01-19T11:11:20.397Z,17.20
2019-01-19T11:16:12.909Z,13.63
2019-01-19T11:21:05.331Z,17.20
2019-01-19T11:25:57.471Z,16.10
2019-01-19T11:30:49.762Z,16.23
2019-01-19T11:35:42.001Z,12.37
2019-01-19T11:40:35.781Z,14.97
2019-01-19T11:45:28.314Z,13.03
2019-01-19T11:50:20.806Z,11.70
2019-01-19T11:55:17.060Z,14.43
2019-01-19T12:00:12.666Z,12.00
2019-01-19T12:05:06.029Z,25.73
2019-01-19T12:09:58.457Z,12.53
2019-01-19T12:14:50.773Z,12.40
2019-01-19T12:19:43.033Z,9.90
2019-01-19T12:24:35.493Z,10.00
2019-01-19T12:29:27.584Z,10.50
2019-01-19T12:34:20.116Z,8.20
2019-01-19T12:39:12.396Z,12.27
2019-01-19T12:44:05.310Z,10.43
2019-01-19T12:48:57.666Z,11.43
2019-01-19T12:53:50.278Z,10.50
2019-01-19T12:58:42.745Z,10.13
2019-01-19T13:03:34.999Z,13.27
2019-01-19T13:08:34.318Z,10.67
2019-01-19T13:13:22.176Z,12.93
2019-01-19T13:18:38.387Z,13.47
2019-01-19T13:24:02.526Z,11.80
2019-01-19T13:29:00.525Z,10.57
2019-01-19T13:34:13.392Z,10.90
2019-01-19T13:39:23.778Z,11.20
2019-01-19T13:44:41.316Z,10.90
2019-01-19T13:49:51.448Z,11.33
2019-01-19T13:55:04.600Z,10.17
2019-01-19T13:59:59.800Z,11.10
2019-01-19T14:05:21.832Z,10.30
2019-01-19T14:10:22.850Z,12.43
2019-01-19T14:15:18.131Z,13.23
2019-01-19T14:20:35.682Z,11.23
2019-01-19T14:25:30.869Z,9.53
2019-01-19T14:30:32.070Z,14.67
2019-01-19T14:35:42.077Z,11.30
2019-01-19T14:40:46.545Z,12.33
2019-01-19T14:45:44.466Z,12.10
2019-01-19T14:50:51.728Z,12.17
2019-01-19T14:56:08.180Z,10.97
2019-01-19T15:01:12.045Z,10.23
2019-01-19T15:06:13.074Z,11.53
2019-01-19T15:11:13.986Z,10.63
2019-01-19T15:16:18.043Z,10.47
2019-01-19T15:21:16.389Z,10.50
2019-01-19T15:26:14.773Z,11.17
2019-01-19T15:31:18.521Z,12.17
2019-01-19T15:36:19.273Z,12.57
2019-01-19T15:41:29.122Z,12.53
2019-01-19T15:47:00.525Z,13.70
2019-01-19T15:52:12.688Z,14.57
2019-01-19T15:57:13.353Z,26.67
2019-01-19T16:02:11.209Z,119.43
2019-01-19T16:07:09.425Z,68.97
2019-01-19T16:12:07.853Z,35.87
2019-01-19T16:17:08.810Z,24.97
2019-01-19T16:22:07.082Z,24.03
2019-01-19T16:27:10.739Z,24.13
2019-01-19T16:32:18.021Z,29.73
2019-01-19T16:37:27.974Z,28.40
2019-01-19T16:42:47.149Z,25.07
2019-01-19T16:47:45.282Z,24.57
2019-01-19T16:52:43.205Z,28.70
2019-01-19T16:57:44.453Z,24.93
2019-01-19T17:02:42.915Z,29.83
2019-01-19T17:07:46.529Z,34.87
2019-01-19T17:12:58.189Z,28.43
2019-01-19T17:18:08.120Z,30.30
2019-01-19T17:23:06.207Z,24.27
2019-01-19T17:28:10.053Z,20.90
2019-01-19T17:33:11.193Z,19.30
2019-01-19T17:38:27.040Z,20.07
2019-01-19T17:43:30.817Z,20.83
2019-01-19T17:48:40.933Z,25.10
2019-01-19T17:53:42.137Z,19.70
2019-01-19T17:59:08.921Z,24.47
2019-01-19T18:04:09.608Z,21.80
2019-01-19T18:09:23.734Z,25.03
2019-01-19T18:14:39.607Z,27.77
2019-01-19T18:19:55.569Z,27.97
2019-01-19T18:25:16.110Z,32.50
2019-01-19T18:30:20.289Z,23.17
2019-01-19T18:35:30.408Z,57.47
2019-01-19T18:40:43.579Z,31.50
2019-01-19T18:45:50.646Z,27.43
2019-01-19T18:50:47.579Z,28.10
2019-01-19T18:55:59.222Z,21.93
2019-01-19T19:01:04.160Z,24.83
2019-01-19T19:06:01.691Z,25.27
2019-01-19T19:11:11.888Z,27.90
2019-01-19T19:16:16.723Z,28.07
2019-01-19T19:21:27.120Z,34.37
2019-01-19T19:26:55.107Z,33.80
2019-01-19T19:31:59.557Z,33.43
2019-01-19T19:36:54.716Z,28.60
2019-01-19T19:42:01.934Z,61.47
2019-01-19T19:47:08.959Z,26.23
2019-01-19T19:52:02.225Z,27.30
2019-01-19T19:56:54.745Z,26.37
2019-01-19T20:01:46.880Z,27.77
2019-01-19T20:06:39.330Z,28.20
2019-01-19T20:11:31.885Z,30.23
2019-01-19T20:16:24.346Z,28.77
2019-01-19T20:21:16.662Z,24.93
2019-01-19T20:26:08.860Z,34.43
2019-01-19T20:31:01.361Z,37.10
2019-01-19T20:35:53.365Z,31.23
2019-01-19T20:40:45.521Z,29.63
2019-01-19T20:45:37.793Z,33.43
2019-01-19T20:50:29.985Z,25.37
2019-01-19T20:55:22.240Z,33.33
2019-01-19T21:00:17.448Z,24.37
2019-01-19T21:05:09.895Z,25.73
2019-01-19T21:10:02.370Z,25.60
2019-01-19T21:14:54.384Z,25.83
2019-01-19T21:19:46.821Z,31.40
2019-01-19T21:24:38.997Z,27.73
2019-01-19T21:29:31.365Z,29.17
2019-01-19T21:34:23.613Z,29.83
2019-01-19T21:39:16.088Z,28.07
2019-01-19T21:44:08.799Z,33.70
2019-01-19T21:49:01.193Z,66.13
2019-01-19T21:53:53.252Z,42.27
2019-01-19T21:58:45.516Z,55.33
2019-01-19T22:03:37.629Z,70.90
2019-01-19T22:08:30.163Z,94.13
2019-01-19T22:13:22.444Z,53.73
2019-01-19T22:18:14.308Z,32.70
2019-01-19T22:23:06.526Z,29.07
2019-01-19T22:27:59.160Z,27.47
2019-01-19T22:32:52.949Z,26.73
2019-01-19T22:37:45.402Z,27.83
2019-01-19T22:42:37.521Z,25.70
2019-01-19T22:47:29.832Z,26.73
2019-01-19T22:52:22.249Z,28.37
2019-01-19T22:57:14.230Z,27.67
2019-01-19T23:02:06.727Z,25.03
2019-01-19T23:06:58.902Z,29.33
2019-01-19T23:11:51.301Z,31.27
2019-01-19T23:16:43.666Z,45.77
2019-01-19T23:21:35.530Z,46.90
2019-01-19T23:26:28.238Z,40.43
2019-01-19T23:31:20.310Z,42.13
2019-01-19T23:36:12.711Z,38.80
2019-01-19T23:41:09.163Z,33.93
2019-01-19T23:45:58.784Z,31.57
2019-01-19T23:50:50.901Z,33.63
2019-01-19T23:55:43.600Z,43.53
